createdAt,value
2017-10-12T00:00:02.965Z,0
2017-10-12T00:05:02.801Z,0
2017-10-12T00:10:02.598Z,0
2017-10-12T00:15:04.448Z,0
2017-10-12T00:20:02.908Z,0
2017-10-12T00:25:03.427Z,0
2017-10-12T00:30:03.130Z,0
2017-10-12T00:35:02.489Z,0
2017-10-12T00:40:04.500Z,0
2017-10-12T00:45:02.938Z,0
2017-10-12T00:50:02.494Z,0
2017-10-12T00:55:02.902Z,0
2017-10-12T01:00:03.452Z,0
2017-10-12T01:05:02.773Z,0
2017-10-12T01:10:03.388Z,0
2017-10-12T01:15:02.758Z,0
2017-10-12T01:20:03.126Z,0
2017-10-12T01:25:02.528Z,0
2017-10-12T01:30:03.133Z,0
2017-10-12T01:35:02.625Z,0
2017-10-12T01:40:03.247Z,0
2017-10-12T01:45:02.576Z,0
2017-10-12T01:50:03.139Z,0
2017-10-12T01:55:02.634Z,0
2017-10-12T02:00:02.941Z,0
2017-10-12T02:05:02.497Z,0
2017-10-12T02:10:02.973Z,0
2017-10-12T02:15:03.293Z,0
2017-10-12T02:20:02.678Z,0
2017-10-12T02:25:03.080Z,0
2017-10-12T02:30:02.641Z,0
2017-10-12T02:35:03.216Z,0
2017-10-12T02:40:02.667Z,0
2017-10-12T02:45:03.255Z,0
2017-10-12T02:50:03.130Z,0
2017-10-12T02:55:02.623Z,0
2017-10-12T03:05:03.005Z,0
2017-10-12T03:10:03.433Z,0
2017-10-12T03:15:02.969Z,0
2017-10-12T03:20:03.380Z,0
2017-10-12T03:25:02.853Z,0
2017-10-12T03:30:03.250Z,0
2017-10-12T03:35:02.799Z,0
2017-10-12T03:40:03.385Z,0
2017-10-12T03:45:02.886Z,0
2017-10-12T03:50:02.453Z,0
2017-10-12T03:55:02.974Z,0
2017-10-12T04:00:03.539Z,0
2017-10-12T04:05:02.978Z,0
2017-10-12T04:10:02.635Z,0
2017-10-12T04:15:02.998Z,0
2017-10-12T04:20:03.446Z,0
2017-10-12T04:25:02.823Z,0
2017-10-12T04:30:03.153Z,0
2017-10-12T04:35:02.653Z,0
2017-10-12T04:40:03.114Z,0
2017-10-12T04:45:02.603Z,0
2017-10-12T04:50:03.195Z,0
2017-10-12T04:55:02.709Z,0
2017-10-12T05:00:03.270Z,0
2017-10-12T05:05:02.756Z,0
2017-10-12T05:10:03.358Z,0
2017-10-12T05:15:02.769Z,0
2017-10-12T05:20:03.210Z,1
2017-10-12T05:25:02.597Z,2
2017-10-12T05:30:03.085Z,8
2017-10-12T05:35:02.653Z,16
2017-10-12T05:40:03.253Z,29
2017-10-12T05:45:02.765Z,46
2017-10-12T05:50:03.315Z,58
2017-10-12T05:55:02.721Z,100
2017-10-12T06:00:03.214Z,259
2017-10-12T06:05:02.603Z,348
2017-10-12T06:10:03.037Z,458
2017-10-12T06:15:02.645Z,472
2017-10-12T06:20:03.314Z,616
2017-10-12T06:25:03.008Z,703
2017-10-12T06:30:02.726Z,755
2017-10-12T06:35:03.412Z,858
2017-10-12T06:40:03.047Z,989
2017-10-12T06:45:02.831Z,1000
2017-10-12T06:50:02.773Z,1000
2017-10-12T06:55:02.486Z,1000
2017-10-12T07:00:03.244Z,1000
2017-10-12T07:05:02.764Z,1000
2017-10-12T07:10:03.414Z,2000
2017-10-12T07:15:03.000Z,2000
2017-10-12T07:20:02.588Z,2000
2017-10-12T07:25:03.177Z,2000
2017-10-12T07:30:02.886Z,2000
2017-10-12T07:35:02.539Z,2000
2017-10-12T07:45:03.020Z,3000
2017-10-12T07:50:02.631Z,3000
2017-10-12T07:55:03.209Z,4000
2017-10-12T08:00:02.636Z,9000
2017-10-12T08:05:03.150Z,5000
2017-10-12T08:10:02.810Z,5000
2017-10-12T08:15:03.156Z,5000
2017-10-12T08:20:02.768Z,5000
2017-10-12T08:25:03.199Z,3000
2017-10-12T08:30:02.532Z,9000
2017-10-12T08:35:03.090Z,10000
2017-10-12T08:40:02.450Z,19000
2017-10-12T08:45:02.787Z,31000
2017-10-12T08:50:03.357Z,17000
2017-10-12T08:55:02.914Z,12000
2017-10-12T09:00:03.288Z,23000
2017-10-12T09:05:02.833Z,33000
2017-10-12T09:10:03.406Z,30000
2017-10-12T09:15:02.748Z,32000
2017-10-12T09:20:03.355Z,10000
2017-10-12T09:25:02.744Z,17000
2017-10-12T09:30:03.356Z,23000
2017-10-12T09:35:02.955Z,22000
2017-10-12T09:40:03.358Z,9000
2017-10-12T09:45:02.617Z,9000
2017-10-12T09:50:03.071Z,20000
2017-10-12T09:55:03.370Z,14000
2017-10-12T10:00:02.805Z,9000
2017-10-12T10:05:03.148Z,6000
2017-10-12T10:10:02.687Z,28000
2017-10-12T10:15:03.005Z,22000
2017-10-12T10:20:03.292Z,11000
2017-10-12T10:25:02.789Z,32000
2017-10-12T10:30:03.121Z,11000
2017-10-12T10:35:02.501Z,14000
2017-10-12T10:40:02.865Z,36000
2017-10-12T10:45:03.427Z,35000
2017-10-12T10:50:02.900Z,17000
2017-10-12T10:55:02.463Z,15000
2017-10-12T11:00:02.992Z,11000
2017-10-12T11:05:03.394Z,5000
2017-10-12T11:10:02.739Z,24000
2017-10-12T11:15:03.246Z,28000
2017-10-12T11:20:02.831Z,18000
2017-10-12T11:25:03.149Z,12000
2017-10-12T11:30:02.677Z,11000
2017-10-12T11:35:03.172Z,14000
2017-10-12T11:40:02.650Z,10000
2017-10-12T11:45:03.050Z,10000
2017-10-12T11:50:02.679Z,9000
2017-10-12T11:55:03.186Z,8000
2017-10-12T12:00:02.562Z,7000
2017-10-12T12:05:03.117Z,8000
2017-10-12T12:10:02.546Z,8000
2017-10-12T12:15:02.935Z,7000
2017-10-12T12:20:03.418Z,7000
2017-10-12T12:25:02.743Z,14000
2017-10-12T12:30:03.201Z,8000
2017-10-12T12:35:02.676Z,8000
2017-10-12T12:40:03.136Z,10000
2017-10-12T12:45:02.566Z,16000
2017-10-12T12:50:02.859Z,10000
2017-10-12T12:55:03.349Z,5000
2017-10-12T13:00:02.844Z,8000
2017-10-12T13:05:03.198Z,5000
2017-10-12T13:10:02.666Z,5000
2017-10-12T13:15:03.161Z,9000
2017-10-12T13:20:02.689Z,6000
2017-10-12T13:25:03.077Z,7000
2017-10-12T13:30:03.412Z,8000
2017-10-12T13:35:02.920Z,8000
2017-10-12T13:40:03.280Z,7000
2017-10-12T13:45:02.681Z,6000
2017-10-12T13:50:03.196Z,6000
2017-10-12T13:55:02.760Z,7000
2017-10-12T14:00:03.113Z,6000
2017-10-12T14:05:02.627Z,5000
2017-10-12T14:10:02.973Z,4000
2017-10-12T14:15:02.487Z,4000
2017-10-12T14:20:02.939Z,5000
2017-10-12T14:25:02.497Z,6000
2017-10-12T14:30:03.034Z,5000
2017-10-12T14:35:02.542Z,5000
2017-10-12T14:40:02.950Z,5000
2017-10-12T14:45:02.491Z,5000
2017-10-12T14:50:02.827Z,9000
2017-10-12T14:55:03.130Z,6000
2017-10-12T15:00:02.535Z,6000
2017-10-12T15:05:02.948Z,6000
2017-10-12T15:10:03.319Z,6000
2017-10-12T15:15:02.805Z,7000
2017-10-12T15:20:03.247Z,5000
2017-10-12T15:25:02.702Z,4000
2017-10-12T15:30:03.223Z,8000
2017-10-12T15:35:02.756Z,5000
2017-10-12T15:40:03.150Z,5000
2017-10-12T15:45:02.437Z,3000
2017-10-12T15:50:03.037Z,4000
2017-10-12T15:55:02.672Z,2000
2017-10-12T16:00:03.017Z,1000
2017-10-12T16:05:03.373Z,1000
2017-10-12T16:10:02.762Z,1000
2017-10-12T16:15:03.104Z,1000
2017-10-12T16:20:02.639Z,741
2017-10-12T16:25:02.978Z,631
2017-10-12T16:30:03.428Z,500
2017-10-12T16:35:03.077Z,369
2017-10-12T16:40:02.474Z,134
2017-10-12T16:45:02.975Z,75
2017-10-12T16:50:03.336Z,65
2017-10-12T16:55:02.835Z,58
2017-10-12T17:00:03.418Z,62
2017-10-12T17:05:03.160Z,62
2017-10-12T17:10:02.554Z,30
2017-10-12T17:15:02.911Z,12
2017-10-12T17:20:03.434Z,4
2017-10-12T17:25:02.968Z,2
2017-10-12T17:30:03.402Z,1
2017-10-12T17:35:02.920Z,0
2017-10-12T17:40:03.358Z,0
2017-10-12T17:45:02.879Z,0
2017-10-12T17:50:03.228Z,0
2017-10-12T17:55:02.595Z,0
2017-10-12T18:00:03.171Z,0
2017-10-12T18:05:02.542Z,0
2017-10-12T18:10:03.090Z,0
2017-10-12T18:15:02.482Z,0
2017-10-12T18:20:02.892Z,0
2017-10-12T18:25:03.423Z,0
2017-10-12T18:30:02.771Z,0
2017-10-12T18:35:03.237Z,0
2017-10-12T18:40:02.745Z,0
2017-10-12T18:45:03.241Z,0
2017-10-12T18:50:02.577Z,0
2017-10-12T18:55:03.143Z,0
2017-10-12T19:00:02.643Z,0
2017-10-12T19:05:03.072Z,0
2017-10-12T19:10:02.659Z,0
2017-10-12T19:15:03.142Z,0
2017-10-12T19:20:02.717Z,0
2017-10-12T19:25:03.075Z,0
2017-10-12T19:30:02.575Z,0
2017-10-12T19:35:03.171Z,0
2017-10-12T19:40:03.107Z,0
2017-10-12T19:45:02.538Z,0
2017-10-12T19:50:03.085Z,0
2017-10-12T19:55:03.427Z,0
2017-10-12T20:00:02.923Z,0
2017-10-12T20:05:02.461Z,0
2017-10-12T20:10:02.978Z,0
2017-10-12T20:15:02.455Z,0
2017-10-12T20:20:02.808Z,0
2017-10-12T20:25:03.183Z,0
2017-10-12T20:30:02.487Z,0
2017-10-12T20:35:02.874Z,0
2017-10-12T20:40:03.280Z,0
2017-10-12T20:45:02.792Z,0
2017-10-12T20:50:03.234Z,0
2017-10-12T21:00:03.400Z,0
2017-10-12T21:05:02.840Z,0
2017-10-12T21:10:03.451Z,0
2017-10-12T21:15:02.910Z,0
2017-10-12T21:20:02.520Z,0
2017-10-12T21:25:02.912Z,0
2017-10-12T21:30:03.403Z,0
2017-10-12T21:35:02.927Z,0
2017-10-12T21:40:03.396Z,0
2017-10-12T21:45:02.798Z,0
2017-10-12T21:50:03.343Z,0
2017-10-12T21:55:02.726Z,0
2017-10-12T22:00:03.265Z,0
2017-10-12T22:05:02.941Z,0
2017-10-12T22:10:03.354Z,0
2017-10-12T22:15:02.741Z,0
2017-10-12T22:20:03.123Z,0
2017-10-12T22:25:02.655Z,0
2017-10-12T22:30:03.055Z,0
2017-10-12T22:35:02.592Z,0
2017-10-12T22:40:03.199Z,0
2017-10-12T22:45:02.536Z,0
2017-10-12T22:50:03.115Z,0
2017-10-12T22:55:02.599Z,0
2017-10-12T23:00:03.712Z,0
2017-10-12T23:05:03.111Z,0
2017-10-12T23:10:02.554Z,0
2017-10-12T23:15:02.956Z,0
2017-10-12T23:20:03.397Z,0
2017-10-12T23:25:02.900Z,0
2017-10-12T23:30:03.346Z,0
2017-10-12T23:35:02.711Z,0
2017-10-12T23:40:03.248Z,0
2017-10-12T23:45:02.722Z,0
2017-10-12T23:50:03.131Z,0
2017-10-12T23:55:02.408Z,0
